Time;durP1;ratioP1;P1;durP2;ratioP2;P2;SDS_P1;SDS_P2;PMS_P1;PMS_P2;Temp;Humidity;BMP_temperature;BMP_pressure;BME280_temperature;BME280_humidity;BME280_pressure;Samples;Min_cycle;Max_cycle;Signal;HPM_P1;HPM_P2
2022/07/03 00:01:42;;;;;;;;;11.40;9.60;;;;;;;;5035046;28;8764;-82
2022/07/03 00:04:09;;;;;;;;;10.20;9.00;;;;;;;;5035926;28;9372;-75
2022/07/03 00:06:36;;;;;;;;;11.00;10.60;;;;;;;;5036123;28;8784;-75
2022/07/03 00:09:05;;;;;;;;;11.00;8.40;;;;;;;;5034791;28;8903;-76
2022/07/03 00:11:32;;;;;;;;;10.60;9.40;;;;;;;;5018080;28;8812;-82
2022/07/03 00:13:59;;;;;;;;;6.00;6.00;;;;;;;;5018601;28;9447;-75
2022/07/03 00:16:26;;;;;;;;;7.40;6.40;;;;;;;;5035935;28;8789;-75
2022/07/03 00:18:52;;;;;;;;;7.00;7.00;;;;;;;;5035126;28;8803;-75
2022/07/03 00:21:35;;;;;;;;;6.80;4.80;;;;;;;;5034386;28;8772;-75
2022/07/03 00:24:08;;;;;;;;;6.80;6.80;;;;;;;;5018305;28;8776;-75
2022/07/03 00:26:36;;;;;;;;;6.20;5.80;;;;;;;;5035624;28;8780;-76
2022/07/03 00:29:03;;;;;;;;;4.80;3.20;;;;;;;;5018318;28;8827;-76
2022/07/03 00:31:30;;;;;;;;;7.20;5.20;;;;;;;;5033968;28;8912;-75
2022/07/03 00:34:00;;;;;;;;;6.00;6.00;;;;;;;;5034979;28;8946;-75
2022/07/03 00:36:27;;;;;;;;;10.00;6.00;;;;;;;;5033958;28;8815;-76
2022/07/03 00:38:54;;;;;;;;;8.20;6.60;;;;;;;;5034381;28;8776;-80
2022/07/03 00:41:32;;;;;;;;;5.80;5.80;;;;;;;;5034234;28;8792;-80
2022/07/03 00:43:59;;;;;;;;;7.00;5.60;;;;;;;;5035078;28;8776;-75
2022/07/03 00:46:26;;;;;;;;;6.60;5.40;;;;;;;;5034188;28;8784;-76
2022/07/03 00:48:53;;;;;;;;;5.00;5.00;;;;;;;;5034280;28;8753;-75
2022/07/03 00:51:29;;;;;;;;;5.20;5.00;;;;;;;;5033766;28;8946;-75
2022/07/03 00:53:56;;;;;;;;;8.60;7.80;;;;;;;;5034177;28;8883;-75
2022/07/03 00:56:27;;;;;;;;;6.00;6.00;;;;;;;;5017605;28;8780;-75
2022/07/03 00:58:54;;;;;;;;;5.00;4.40;;;;;;;;5034523;28;8786;-81
2022/07/03 01:01:21;;;;;;;;;6.40;5.00;;;;;;;;5034380;28;8803;-81
2022/07/03 01:03:48;;;;;;;;;3.40;3.20;;;;;;;;5033735;28;8823;-83
2022/07/03 01:06:14;;;;;;;;;5.00;5.00;;;;;;;;5017895;28;8784;-77
2022/07/03 01:09:00;;;;;;;;;1.80;1.80;;;;;;;;5033859;28;8776;-80
2022/07/03 01:11:33;;;;;;;;;4.60;4.60;;;;;;;;5033698;28;8792;-76
2022/07/03 01:14:20;;;;;;;;;1.40;0.60;;;;;;;;5017669;28;8772;-81
2022/07/03 01:16:46;;;;;;;;;3.60;3.40;;;;;;;;5035045;28;8797;-76
2022/07/03 01:19:32;;;;;;;;;8.80;4.80;;;;;;;;5036087;28;8764;-83
2022/07/03 01:22:04;;;;;;;;;6.40;6.00;;;;;;;;5035733;28;8867;-76
2022/07/03 01:24:40;;;;;;;;;7.40;5.60;;;;;;;;5034474;28;8769;-76
2022/07/03 01:27:11;;;;;;;;;5.80;4.60;;;;;;;;5034973;28;8792;-81
2022/07/03 01:29:47;;;;;;;;;6.80;6.00;;;;;;;;5034714;28;8839;-80
2022/07/03 01:32:14;;;;;;;;;5.40;4.20;;;;;;;;5045231;28;8778;-81
2022/07/03 01:34:40;;;;;;;;;7.00;5.40;;;;;;;;5020563;28;9454;-75
2022/07/03 01:37:07;;;;;;;;;7.80;6.80;;;;;;;;5037620;28;8766;-75
2022/07/03 01:39:33;;;;;;;;;8.60;7.00;;;;;;;;5036187;28;8767;-81
2022/07/03 01:42:00;;;;;;;;;8.20;7.00;;;;;;;;5020368;28;8767;-75
2022/07/03 01:44:27;;;;;;;;;7.40;5.80;;;;;;;;5020184;28;8786;-80
2022/07/03 01:46:55;;;;;;;;;11.00;8.00;;;;;;;;5036778;28;8775;-82
2022/07/03 01:49:21;;;;;;;;;8.40;7.60;;;;;;;;5037304;28;8786;-76
2022/07/03 01:51:50;;;;;;;;;7.00;7.00;;;;;;;;5036577;28;8920;-75
2022/07/03 01:54:17;;;;;;;;;8.00;6.40;;;;;;;;5036550;28;8782;-80
2022/07/03 01:56:44;;;;;;;;;13.00;9.20;;;;;;;;5019669;28;8774;-75
2022/07/03 01:59:11;;;;;;;;;9.20;9.00;;;;;;;;5036453;28;8786;-75
2022/07/03 02:01:52;;;;;;;;;9.00;7.60;;;;;;;;5036465;28;8786;-75
2022/07/03 02:04:28;;;;;;;;;9.60;9.00;;;;;;;;5017360;28;8761;-75
2022/07/03 02:07:13;;;;;;;;;12.80;11.20;;;;;;;;5017498;28;8754;-75
2022/07/03 02:09:50;;;;;;;;;10.40;9.20;;;;;;;;5000042;28;8883;-80
2022/07/03 02:12:17;;;;;;;;;13.00;9.60;;;;;;;;5016598;28;8821;-81
2022/07/03 02:14:49;;;;;;;;;13.20;10.20;;;;;;;;5000376;28;8761;-75
2022/07/03 02:17:21;;;;;;;;;15.20;11.40;;;;;;;;5018170;28;8783;-75
2022/07/03 02:19:58;;;;;;;;;5.20;5.00;;;;;;;;5016697;28;8765;-80
2022/07/03 02:22:29;;;;;;;;;10.60;8.40;;;;;;;;5034014;28;8831;-81
2022/07/03 02:24:57;;;;;;;;;10.00;7.00;;;;;;;;5017169;28;8863;-75
2022/07/03 02:27:24;;;;;;;;;8.60;8.60;;;;;;;;5032734;28;9417;-82
2022/07/03 02:29:55;;;;;;;;;8.00;7.00;;;;;;;;5033075;28;8894;-75
2022/07/03 02:32:22;;;;;;;;;9.60;7.60;;;;;;;;5012740;28;9419;-79
2022/07/03 02:34:57;;;;;;;;;8.00;6.40;;;;;;;;4997014;28;8774;-80
2022/07/03 02:37:24;;;;;;;;;6.60;5.80;;;;;;;;4997508;28;8775;-75
2022/07/03 02:39:55;;;;;;;;;6.40;6.00;;;;;;;;5013634;28;8795;-75
2022/07/03 02:42:31;;;;;;;;;9.40;8.00;;;;;;;;5012805;28;8787;-82
2022/07/03 02:44:58;;;;;;;;;7.20;7.20;;;;;;;;5014138;28;8818;-76
2022/07/03 02:47:28;;;;;;;;;9.80;9.00;;;;;;;;5018741;28;8771;-76
2022/07/03 02:50:05;;;;;;;;;7.60;7.40;;;;;;;;5033579;28;8791;-75
2022/07/03 02:52:41;;;;;;;;;8.80;8.60;;;;;;;;5032590;28;8847;-75
2022/07/03 02:55:26;;;;;;;;;11.40;9.00;;;;;;;;5033308;28;8775;-75
2022/07/03 02:58:12;;;;;;;;;11.80;8.60;;;;;;;;5034562;28;8741;-75
2022/07/03 03:00:40;;;;;;;;;5.40;5.20;;;;;;;;5022659;28;8792;-75
2022/07/03 03:03:06;;;;;;;;;2.60;2.20;;;;;;;;5032626;28;8823;-75
2022/07/03 03:05:36;;;;;;;;;5.60;5.60;;;;;;;;5033824;28;8764;-75
2022/07/03 03:08:12;;;;;;;;;7.60;6.40;;;;;;;;5034664;28;8771;-75
2022/07/03 03:10:39;;;;;;;;;9.00;6.00;;;;;;;;5035517;28;8780;-75
2022/07/03 03:13:09;;;;;;;;;6.80;6.80;;;;;;;;5036713;28;8804;-75
2022/07/03 03:15:37;;;;;;;;;8.80;7.40;;;;;;;;5036987;28;8806;-75
2022/07/03 03:18:07;;;;;;;;;7.40;6.00;;;;;;;;5035806;28;9021;-79
2022/07/03 03:20:34;;;;;;;;;5.20;5.00;;;;;;;;5035674;28;8784;-75
2022/07/03 03:23:10;;;;;;;;;6.20;6.20;;;;;;;;5035976;28;8784;-75
2022/07/03 03:25:37;;;;;;;;;6.80;6.00;;;;;;;;5035596;28;8801;-75
2022/07/03 03:28:04;;;;;;;;;6.00;6.00;;;;;;;;5036586;28;8772;-75
2022/07/03 03:30:31;;;;;;;;;6.80;6.00;;;;;;;;5035405;28;8859;-75
2022/07/03 03:32:57;;;;;;;;;6.60;4.60;;;;;;;;5035210;28;9518;-75
2022/07/03 03:35:24;;;;;;;;;5.80;4.80;;;;;;;;5036774;28;8784;-75
2022/07/03 03:37:51;;;;;;;;;5.40;5.40;;;;;;;;5035686;28;8784;-76
2022/07/03 03:40:17;;;;;;;;;5.00;4.40;;;;;;;;5037456;28;8807;-80
2022/07/03 03:42:44;;;;;;;;;7.20;4.00;;;;;;;;5036689;28;8777;-75
2022/07/03 03:45:11;;;;;;;;;6.40;5.40;;;;;;;;5035541;28;8796;-75
2022/07/03 03:47:38;;;;;;;;;6.00;5.40;;;;;;;;5035058;28;8793;-75
2022/07/03 03:50:05;;;;;;;;;4.60;4.60;;;;;;;;5035536;28;8776;-86
2022/07/03 03:52:32;;;;;;;;;6.00;5.00;;;;;;;;5018732;28;8820;-75
2022/07/03 03:54:59;;;;;;;;;6.60;3.60;;;;;;;;5019671;28;8811;-75
2022/07/03 03:57:26;;;;;;;;;6.80;5.60;;;;;;;;5036144;28;8776;-82
2022/07/03 03:59:52;;;;;;;;;4.20;3.00;;;;;;;;5018826;28;8905;-82
2022/07/03 04:02:19;;;;;;;;;4.80;4.00;;;;;;;;5034807;28;8814;-75
2022/07/03 04:04:46;;;;;;;;;3.00;3.00;;;;;;;;5035424;28;9437;-82
2022/07/03 04:07:12;;;;;;;;;4.00;3.80;;;;;;;;5019489;28;8776;-75
2022/07/03 04:09:39;;;;;;;;;3.00;3.00;;;;;;;;5034362;28;9448;-83
2022/07/03 04:12:06;;;;;;;;;4.00;4.00;;;;;;;;5035013;28;8875;-79
2022/07/03 04:14:33;;;;;;;;;4.00;2.20;;;;;;;;5034797;28;8782;-76
2022/07/03 04:16:59;;;;;;;;;2.80;1.40;;;;;;;;5034904;28;8780;-80
2022/07/03 04:19:26;;;;;;;;;4.60;3.00;;;;;;;;5017884;28;8776;-76
2022/07/03 04:21:53;;;;;;;;;5.00;3.40;;;;;;;;5035456;28;8811;-75
2022/07/03 04:24:19;;;;;;;;;2.00;2.00;;;;;;;;5035859;28;8803;-76
2022/07/03 04:26:46;;;;;;;;;2.00;2.00;;;;;;;;5034774;28;8772;-75
2022/07/03 04:29:12;;;;;;;;;1.00;1.00;;;;;;;;5034746;28;8816;-75
2022/07/03 04:31:39;;;;;;;;;2.20;2.00;;;;;;;;5041446;28;8810;-75
2022/07/03 04:34:06;;;;;;;;;2.80;2.00;;;;;;;;5038548;28;8793;-83
2022/07/03 04:36:32;;;;;;;;;2.00;1.40;;;;;;;;5037772;28;8782;-80
2022/07/03 04:38:59;;;;;;;;;2.00;1.00;;;;;;;;5021396;28;8771;-77
2022/07/03 04:41:26;;;;;;;;;1.00;1.00;;;;;;;;5037792;28;8755;-76
2022/07/03 04:43:52;;;;;;;;;1.20;1.20;;;;;;;;5037618;28;8775;-88
2022/07/03 04:46:21;;;;;;;;;2.00;1.00;;;;;;;;5021760;28;8799;-80
2022/07/03 04:48:47;;;;;;;;;2.40;1.60;;;;;;;;5017731;28;8799;-81
2022/07/03 04:51:14;;;;;;;;;2.80;1.40;;;;;;;;5018043;28;8773;-77
2022/07/03 04:53:41;;;;;;;;;2.00;0.00;;;;;;;;5017873;28;8797;-78
2022/07/03 04:56:07;;;;;;;;;1.80;1.80;;;;;;;;5001669;28;8761;-77
2022/07/03 04:58:34;;;;;;;;;1.40;1.40;;;;;;;;5017953;28;9055;-77
2022/07/03 05:01:01;;;;;;;;;2.60;2.00;;;;;;;;5036183;28;8745;-83
2022/07/03 05:03:27;;;;;;;;;1.00;1.00;;;;;;;;5012017;28;8788;-82
2022/07/03 05:05:54;;;;;;;;;2.80;1.40;;;;;;;;5035111;28;8887;-76
2022/07/03 05:08:21;;;;;;;;;1.80;1.80;;;;;;;;5033727;28;8781;-76
2022/07/03 05:10:47;;;;;;;;;2.00;2.00;;;;;;;;5017993;28;8772;-80
2022/07/03 05:13:14;;;;;;;;;2.00;2.00;;;;;;;;5017816;28;8853;-76
2022/07/03 05:15:40;;;;;;;;;3.00;2.60;;;;;;;;5017364;28;8807;-83
2022/07/03 05:18:07;;;;;;;;;3.00;3.00;;;;;;;;5029132;28;8779;-76
2022/07/03 05:20:34;;;;;;;;;2.60;2.60;;;;;;;;5054651;28;8785;-76
2022/07/03 05:23:01;;;;;;;;;1.60;1.60;;;;;;;;5037392;28;8755;-76
2022/07/03 05:25:28;;;;;;;;;4.00;2.00;;;;;;;;5036999;28;9500;-76
2022/07/03 05:27:55;;;;;;;;;2.20;1.00;;;;;;;;5037791;28;8775;-76
2022/07/03 05:30:25;;;;;;;;;2.00;2.00;;;;;;;;5036204;28;8837;-76
2022/07/03 05:32:51;;;;;;;;;2.40;2.40;;;;;;;;5033047;28;8842;-76
2022/07/03 05:35:18;;;;;;;;;2.40;1.00;;;;;;;;5033456;28;8780;-76
2022/07/03 05:37:45;;;;;;;;;5.40;2.60;;;;;;;;5033387;28;8873;-81
2022/07/03 05:40:12;;;;;;;;;1.00;1.00;;;;;;;;5034250;28;8780;-76
2022/07/03 05:42:38;;;;;;;;;1.60;0.20;;;;;;;;5033364;28;8808;-76
2022/07/03 05:45:05;;;;;;;;;1.00;1.00;;;;;;;;5033356;28;8788;-76
2022/07/03 05:47:32;;;;;;;;;1.00;1.00;;;;;;;;5034241;28;8914;-76
2022/07/03 05:49:59;;;;;;;;;3.80;1.20;;;;;;;;5034605;28;8768;-76
2022/07/03 05:52:26;;;;;;;;;2.40;1.00;;;;;;;;5034313;28;8797;-81
2022/07/03 05:54:52;;;;;;;;;2.20;1.00;;;;;;;;5033536;28;8861;-77
2022/07/03 05:57:20;;;;;;;;;2.60;2.00;;;;;;;;5034110;28;8791;-76
2022/07/03 05:59:47;;;;;;;;;2.00;1.80;;;;;;;;5033298;28;8858;-76
2022/07/03 06:02:14;;;;;;;;;4.00;2.40;;;;;;;;5034370;28;8800;-76
2022/07/03 06:04:41;;;;;;;;;4.00;3.00;;;;;;;;5033230;28;8849;-80
2022/07/03 06:07:07;;;;;;;;;3.60;3.40;;;;;;;;5033953;28;8853;-76
2022/07/03 06:09:34;;;;;;;;;4.20;3.00;;;;;;;;5032775;28;8847;-76
2022/07/03 06:12:00;;;;;;;;;4.20;4.20;;;;;;;;5033986;28;8804;-76
2022/07/03 06:14:27;;;;;;;;;3.80;2.80;;;;;;;;5032902;28;8817;-76
2022/07/03 06:16:54;;;;;;;;;2.00;1.20;;;;;;;;5016771;28;8795;-76
2022/07/03 06:19:20;;;;;;;;;2.60;2.60;;;;;;;;5034565;28;8892;-76
2022/07/03 06:21:47;;;;;;;;;2.00;2.00;;;;;;;;5033133;28;8791;-76
2022/07/03 06:24:14;;;;;;;;;4.00;4.00;;;;;;;;5016679;28;8826;-76
2022/07/03 06:26:40;;;;;;;;;3.40;2.00;;;;;;;;5032818;28;8764;-81
2022/07/03 06:29:07;;;;;;;;;3.00;3.00;;;;;;;;5016574;28;8808;-76
2022/07/03 06:31:33;;;;;;;;;2.40;2.40;;;;;;;;5032094;28;8785;-81
2022/07/03 06:34:00;;;;;;;;;3.40;2.20;;;;;;;;5013648;28;8853;-80
2022/07/03 06:36:27;;;;;;;;;3.00;2.00;;;;;;;;5012906;28;8791;-76
2022/07/03 06:38:53;;;;;;;;;2.60;2.00;;;;;;;;5013035;28;8806;-76
2022/07/03 06:41:20;;;;;;;;;3.00;3.00;;;;;;;;5013969;28;8805;-76
2022/07/03 06:43:46;;;;;;;;;3.00;3.00;;;;;;;;5017146;28;9436;-76
2022/07/03 06:46:13;;;;;;;;;3.00;3.00;;;;;;;;5018790;28;8759;-76
2022/07/03 06:48:40;;;;;;;;;1.80;0.80;;;;;;;;5032296;28;8885;-76
2022/07/03 06:51:06;;;;;;;;;2.80;2.40;;;;;;;;5036601;28;8830;-76
2022/07/03 06:53:33;;;;;;;;;3.40;2.00;;;;;;;;5019693;28;8795;-76
2022/07/03 06:56:00;;;;;;;;;2.60;2.60;;;;;;;;5036200;28;8787;-76
2022/07/03 06:58:26;;;;;;;;;2.80;2.80;;;;;;;;5020018;28;8784;-81
2022/07/03 07:00:53;;;;;;;;;2.60;2.60;;;;;;;;5020647;28;8784;-76
2022/07/03 07:03:20;;;;;;;;;2.60;2.60;;;;;;;;5035698;28;8792;-75
2022/07/03 07:05:46;;;;;;;;;2.20;2.20;;;;;;;;5036283;28;8841;-76
2022/07/03 07:08:13;;;;;;;;;3.80;2.20;;;;;;;;5037490;28;8796;-76
2022/07/03 07:10:39;;;;;;;;;3.20;1.20;;;;;;;;5036218;28;8772;-76
2022/07/03 07:13:06;;;;;;;;;3.40;3.40;;;;;;;;5036860;28;8834;-76
2022/07/03 07:15:36;;;;;;;;;3.20;2.80;;;;;;;;5019400;28;8873;-76
2022/07/03 07:18:02;;;;;;;;;2.00;2.00;;;;;;;;5016473;28;8857;-76
2022/07/03 07:20:29;;;;;;;;;3.80;2.80;;;;;;;;5015839;28;8787;-76
2022/07/03 07:22:55;;;;;;;;;3.60;3.40;;;;;;;;5016283;28;8844;-76
2022/07/03 07:25:22;;;;;;;;;3.00;3.00;;;;;;;;5016676;28;8759;-81
2022/07/03 07:27:49;;;;;;;;;2.60;2.00;;;;;;;;5015683;28;9454;-76
2022/07/03 07:30:15;;;;;;;;;3.20;2.20;;;;;;;;4999816;28;8908;-81
2022/07/03 07:32:42;;;;;;;;;2.20;2.20;;;;;;;;5023581;28;8816;-76
2022/07/03 07:35:09;;;;;;;;;2.60;2.60;;;;;;;;5035728;28;8771;-76
2022/07/03 07:37:35;;;;;;;;;1.80;1.80;;;;;;;;5036138;28;8757;-76
2022/07/03 07:40:02;;;;;;;;;2.00;2.00;;;;;;;;5036397;28;8772;-76
2022/07/03 07:42:29;;;;;;;;;3.20;2.00;;;;;;;;5018863;28;8768;-75
2022/07/03 07:44:55;;;;;;;;;2.80;2.80;;;;;;;;5036694;28;8780;-76
2022/07/03 07:47:22;;;;;;;;;2.60;2.60;;;;;;;;5035188;28;8815;-76
2022/07/03 07:49:49;;;;;;;;;3.60;3.00;;;;;;;;5036736;28;8779;-76
2022/07/03 07:52:16;;;;;;;;;4.00;4.00;;;;;;;;5019403;28;8812;-81
2022/07/03 07:54:42;;;;;;;;;2.00;2.00;;;;;;;;5034724;28;8787;-76
2022/07/03 07:57:09;;;;;;;;;2.00;2.00;;;;;;;;5035330;28;8764;-76
2022/07/03 07:59:35;;;;;;;;;2.20;2.20;;;;;;;;5035069;28;8800;-76
2022/07/03 08:07:32;;;;;;;;;1.40;1.20;;;;;;;;5035824;28;8740;-76
2022/07/03 08:09:59;;;;;;;;;10.00;6.40;;;;;;;;5036968;28;8765;-76
2022/07/03 08:12:25;;;;;;;;;2.20;2.20;;;;;;;;5034568;28;8845;-76
2022/07/03 08:14:52;;;;;;;;;3.00;3.00;;;;;;;;5036181;28;9436;-76
2022/07/03 08:17:19;;;;;;;;;4.00;2.20;;;;;;;;5034704;28;8769;-76
2022/07/03 08:19:45;;;;;;;;;2.80;2.00;;;;;;;;5018680;28;8752;-75
2022/07/03 08:22:12;;;;;;;;;2.80;1.20;;;;;;;;5035572;28;8773;-80
2022/07/03 08:24:38;;;;;;;;;2.00;1.80;;;;;;;;5018073;28;9568;-76
2022/07/03 08:27:05;;;;;;;;;1.40;1.40;;;;;;;;5034783;28;8879;-76
2022/07/03 08:29:32;;;;;;;;;3.80;2.40;;;;;;;;5018106;28;8796;-75
2022/07/03 08:31:59;;;;;;;;;6.60;6.00;;;;;;;;5018073;28;8816;-75
2022/07/03 08:34:25;;;;;;;;;9.00;9.00;;;;;;;;5035033;28;8795;-76
2022/07/03 08:36:52;;;;;;;;;11.20;8.80;;;;;;;;5035282;28;8818;-76
2022/07/03 08:39:19;;;;;;;;;6.40;5.20;;;;;;;;5034236;28;8792;-77
2022/07/03 08:41:46;;;;;;;;;1.40;1.40;;;;;;;;5034548;28;8776;-75
2022/07/03 08:44:13;;;;;;;;;3.00;1.60;;;;;;;;5035715;28;8788;-77
2022/07/03 08:46:39;;;;;;;;;1.40;0.80;;;;;;;;5034552;28;8783;-77
2022/07/03 08:49:07;;;;;;;;;1.00;1.00;;;;;;;;5034833;28;8775;-80
2022/07/03 08:51:36;;;;;;;;;5.80;3.20;;;;;;;;5033894;28;8788;-76
2022/07/03 08:54:02;;;;;;;;;1.80;1.80;;;;;;;;5034278;28;8800;-75
2022/07/03 08:56:29;;;;;;;;;1.60;1.00;;;;;;;;5034059;28;8784;-76
2022/07/03 08:58:58;;;;;;;;;1.40;1.40;;;;;;;;5018030;28;8776;-76
2022/07/03 09:01:24;;;;;;;;;2.00;2.00;;;;;;;;5034605;28;8894;-76
2022/07/03 09:03:51;;;;;;;;;2.40;1.80;;;;;;;;5034232;28;8788;-76
2022/07/03 09:06:18;;;;;;;;;1.40;1.00;;;;;;;;5017523;28;8776;-75
2022/07/03 09:08:44;;;;;;;;;3.20;2.00;;;;;;;;5035182;28;8776;-76
2022/07/03 09:11:11;;;;;;;;;3.00;1.00;;;;;;;;5033920;28;8768;-76
2022/07/03 09:13:38;;;;;;;;;1.00;1.00;;;;;;;;5033695;28;8820;-76
2022/07/03 09:16:04;;;;;;;;;4.40;1.60;;;;;;;;5034532;28;8895;-77
2022/07/03 09:18:39;;;;;;;;;1.60;1.20;;;;;;;;5013661;28;8891;-76
2022/07/03 09:21:05;;;;;;;;;1.00;1.00;;;;;;;;5013939;28;8849;-76
2022/07/03 09:23:42;;;;;;;;;2.40;2.40;;;;;;;;5014828;28;8787;-76
2022/07/03 09:26:16;;;;;;;;;1.60;1.60;;;;;;;;5014024;28;8779;-76
2022/07/03 09:28:45;;;;;;;;;1.60;1.60;;;;;;;;5013904;28;8771;-76
2022/07/03 09:31:13;;;;;;;;;3.00;2.20;;;;;;;;5017526;28;8801;-76
2022/07/03 09:33:50;;;;;;;;;4.00;2.00;;;;;;;;5032568;28;8834;-76
2022/07/03 09:36:19;;;;;;;;;5.60;3.00;;;;;;;;5021110;28;8787;-76
2022/07/03 09:38:45;;;;;;;;;3.20;2.40;;;;;;;;5020537;28;8775;-76
2022/07/03 09:41:12;;;;;;;;;3.40;2.00;;;;;;;;5037229;28;8762;-76
2022/07/03 09:43:41;;;;;;;;;5.60;2.00;;;;;;;;5036791;28;8893;-76
2022/07/03 09:46:08;;;;;;;;;1.80;1.80;;;;;;;;5037586;28;8763;-76
2022/07/03 09:48:38;;;;;;;;;1.20;1.20;;;;;;;;5036214;28;8770;-76
2022/07/03 09:51:09;;;;;;;;;2.00;2.00;;;;;;;;5036830;28;8816;-76
2022/07/03 09:53:45;;;;;;;;;2.00;2.00;;;;;;;;5019948;28;8958;-76
2022/07/03 09:56:11;;;;;;;;;2.20;2.00;;;;;;;;5036608;28;8747;-76
2022/07/03 09:58:39;;;;;;;;;2.00;2.00;;;;;;;;5036585;28;10131;-76
2022/07/03 10:01:22;;;;;;;;;1.80;1.60;;;;;;;;5037213;28;8763;-76
2022/07/03 10:03:49;;;;;;;;;3.40;3.40;;;;;;;;5036563;28;8785;-80
2022/07/03 10:06:15;;;;;;;;;3.00;3.00;;;;;;;;5036689;28;8873;-76
2022/07/03 10:08:43;;;;;;;;;4.00;2.00;;;;;;;;5036529;28;8777;-76
2022/07/03 10:11:10;;;;;;;;;0.00;0.00;;;;;;;;5020391;28;8770;-76
2022/07/03 10:13:40;;;;;;;;;3.20;2.20;;;;;;;;5019733;28;8833;-75
2022/07/03 10:16:07;;;;;;;;;3.60;2.00;;;;;;;;5038083;28;8751;-76
2022/07/03 10:18:37;;;;;;;;;2.60;1.00;;;;;;;;5057722;28;8806;-75
2022/07/03 10:21:06;;;;;;;;;0.20;0.20;;;;;;;;5040604;28;8763;-76
2022/07/03 10:23:32;;;;;;;;;2.60;1.40;;;;;;;;5040417;28;8747;-76
2022/07/03 10:25:59;;;;;;;;;5.20;3.00;;;;;;;;5040645;28;8775;-76
2022/07/03 10:28:25;;;;;;;;;5.60;4.60;;;;;;;;5040295;28;8774;-77
2022/07/03 10:30:52;;;;;;;;;6.00;3.00;;;;;;;;5040865;28;8885;-76
2022/07/03 10:33:19;;;;;;;;;2.40;2.20;;;;;;;;5035856;28;8804;-76
2022/07/03 10:35:55;;;;;;;;;1.40;1.40;;;;;;;;5036910;28;8779;-75
2022/07/03 10:38:34;;;;;;;;;2.40;2.00;;;;;;;;5036700;28;8791;-76
2022/07/03 10:46:36;;;;;;;;;4.40;4.40;;;;;;;;5036224;28;8768;-76
2022/07/03 10:49:10;;;;;;;;;3.60;2.60;;;;;;;;5036993;28;8792;-75
2022/07/03 10:51:46;;;;;;;;;3.00;3.00;;;;;;;;5035862;28;8776;-80
2022/07/03 10:54:39;;;;;;;;;3.00;3.00;;;;;;;;5037685;28;8765;-76
2022/07/03 10:57:06;;;;;;;;;3.40;2.80;;;;;;;;5036171;28;8745;-76
2022/07/03 10:59:33;;;;;;;;;2.00;2.00;;;;;;;;5019815;28;8780;-75
2022/07/03 11:02:18;;;;;;;;;1.20;1.20;;;;;;;;5036342;28;9455;-75
2022/07/03 11:05:01;;;;;;;;;5.00;4.00;;;;;;;;5037534;28;8879;-76
2022/07/03 11:07:34;;;;;;;;;3.00;3.00;;;;;;;;5037395;28;8745;-76
2022/07/03 11:10:06;;;;;;;;;3.80;3.80;;;;;;;;5037003;28;8853;-76
2022/07/03 11:12:52;;;;;;;;;6.80;4.60;;;;;;;;5035806;28;8804;-76
2022/07/03 11:15:30;;;;;;;;;5.40;3.40;;;;;;;;5035778;28;8744;-76
2022/07/03 11:18:12;;;;;;;;;5.00;3.00;;;;;;;;5036875;28;8768;-75
2022/07/03 11:20:47;;;;;;;;;5.60;4.80;;;;;;;;5036987;28;8776;-76
2022/07/03 11:23:20;;;;;;;;;6.40;5.40;;;;;;;;5036079;28;8882;-75
2022/07/03 11:25:47;;;;;;;;;8.20;5.60;;;;;;;;5036126;28;8761;-76
2022/07/03 11:28:32;;;;;;;;;6.00;6.00;;;;;;;;5035341;28;8772;-76
2022/07/03 11:31:13;;;;;;;;;3.40;3.00;;;;;;;;5037637;28;8792;-75
2022/07/03 11:33:43;;;;;;;;;6.00;6.00;;;;;;;;5016601;28;8815;-76
2022/07/03 11:36:15;;;;;;;;;4.40;3.00;;;;;;;;5017134;28;9439;-75
2022/07/03 11:38:42;;;;;;;;;3.80;3.60;;;;;;;;5015732;28;8766;-75
2022/07/03 11:41:12;;;;;;;;;3.00;3.00;;;;;;;;5017112;28;8932;-75
2022/07/03 11:43:39;;;;;;;;;6.00;5.20;;;;;;;;5015223;28;8782;-83
2022/07/03 11:46:06;;;;;;;;;6.40;3.80;;;;;;;;5016145;28;8803;-75
2022/07/03 11:48:33;;;;;;;;;7.00;7.00;;;;;;;;5015248;28;8795;-76
2022/07/03 11:51:03;;;;;;;;;9.60;6.60;;;;;;;;5015703;28;8779;-76
2022/07/03 11:53:30;;;;;;;;;7.00;6.60;;;;;;;;5015274;28;8775;-76
2022/07/03 11:56:03;;;;;;;;;4.00;4.00;;;;;;;;5016742;28;8815;-76
2022/07/03 11:58:48;;;;;;;;;8.80;5.60;;;;;;;;4999281;28;8815;-76
2022/07/03 12:01:30;;;;;;;;;6.80;5.00;;;;;;;;5016063;28;8921;-76
2022/07/03 12:04:02;;;;;;;;;4.00;4.00;;;;;;;;5017000;28;8775;-75
2022/07/03 12:06:38;;;;;;;;;5.00;5.00;;;;;;;;5016232;28;8775;-76
2022/07/03 12:09:24;;;;;;;;;6.00;5.00;;;;;;;;5015336;28;8953;-75
2022/07/03 12:11:53;;;;;;;;;5.80;5.00;;;;;;;;5015101;28;8893;-75
2022/07/03 12:14:40;;;;;;;;;5.00;4.20;;;;;;;;5016376;28;8779;-75
2022/07/03 12:17:08;;;;;;;;;5.80;5.20;;;;;;;;5003119;28;8751;-75
2022/07/03 12:19:35;;;;;;;;;7.60;3.60;;;;;;;;4998701;28;8786;-75
2022/07/03 12:22:01;;;;;;;;;8.00;7.20;;;;;;;;5015279;28;8771;-75
2022/07/03 12:24:28;;;;;;;;;9.80;6.80;;;;;;;;5014740;28;8809;-76
2022/07/03 12:26:55;;;;;;;;;7.60;6.00;;;;;;;;5014949;28;8826;-75
2022/07/03 12:29:21;;;;;;;;;8.00;5.00;;;;;;;;5014511;28;8870;-76
2022/07/03 12:31:48;;;;;;;;;6.20;4.80;;;;;;;;5003089;28;8760;-77
2022/07/03 12:34:15;;;;;;;;;4.60;4.40;;;;;;;;5034955;28;8847;-77
2022/07/03 12:36:54;;;;;;;;;5.80;2.80;;;;;;;;5018027;28;8784;-77
2022/07/03 12:39:21;;;;;;;;;3.80;2.40;;;;;;;;5017530;28;8841;-77
2022/07/03 12:41:48;;;;;;;;;5.20;4.60;;;;;;;;5034480;28;8764;-76
2022/07/03 12:44:18;;;;;;;;;6.20;3.80;;;;;;;;5034300;28;8805;-75
2022/07/03 12:46:44;;;;;;;;;4.80;3.20;;;;;;;;5034487;28;8838;-75
2022/07/03 12:49:12;;;;;;;;;0.20;0.20;;;;;;;;5036302;28;8875;-76
2022/07/03 12:51:50;;;;;;;;;2.00;2.00;;;;;;;;5033953;28;8838;-75
2022/07/03 12:54:23;;;;;;;;;4.40;2.00;;;;;;;;5034167;28;8784;-77
2022/07/03 13:00:10;;;;;;;;;2.40;2.00;;;;;;;;5034280;28;8788;-75
2022/07/03 13:02:37;;;;;;;;;2.20;1.60;;;;;;;;5033714;28;8894;-76
2022/07/03 13:05:20;;;;;;;;;3.00;3.00;;;;;;;;5017581;28;8776;-75
2022/07/03 13:07:51;;;;;;;;;3.40;2.00;;;;;;;;5034133;28;9059;-75
2022/07/03 13:10:18;;;;;;;;;2.80;2.80;;;;;;;;5034564;28;8811;-75
2022/07/03 13:12:57;;;;;;;;;4.00;3.00;;;;;;;;5033724;28;8811;-76
2022/07/03 13:15:27;;;;;;;;;3.80;3.60;;;;;;;;5034736;28;8795;-76
2022/07/03 13:17:54;;;;;;;;;3.00;1.80;;;;;;;;5033672;28;8801;-76
2022/07/03 13:20:23;;;;;;;;;7.40;3.40;;;;;;;;5034494;28;8752;-76
2022/07/03 13:22:55;;;;;;;;;5.60;3.00;;;;;;;;5033902;28;8875;-75
2022/07/03 13:25:21;;;;;;;;;5.00;4.60;;;;;;;;5034300;28;8752;-76
2022/07/03 13:27:48;;;;;;;;;0.60;0.20;;;;;;;;5033317;28;8756;-75
2022/07/03 13:30:15;;;;;;;;;6.20;3.60;;;;;;;;5033667;28;8836;-75
2022/07/03 13:32:42;;;;;;;;;4.00;2.00;;;;;;;;5013517;28;8853;-76
2022/07/03 13:35:09;;;;;;;;;1.00;1.00;;;;;;;;5014028;28;8812;-75
2022/07/03 13:37:35;;;;;;;;;5.60;3.40;;;;;;;;5013601;28;8833;-75
2022/07/03 13:40:02;;;;;;;;;4.80;2.40;;;;;;;;5014385;28;8794;-76
2022/07/03 13:42:29;;;;;;;;;1.40;0.60;;;;;;;;5014723;28;8779;-80
2022/07/03 13:44:59;;;;;;;;;4.40;2.00;;;;;;;;4997305;28;8795;-80
2022/07/03 13:47:25;;;;;;;;;1.80;1.00;;;;;;;;4999502;28;8790;-76
2022/07/03 13:49:52;;;;;;;;;2.80;1.00;;;;;;;;5013892;28;8775;-75
2022/07/03 13:52:19;;;;;;;;;2.40;2.00;;;;;;;;5013300;28;8822;-76
2022/07/03 13:54:45;;;;;;;;;2.60;1.20;;;;;;;;5013550;28;8926;-76
2022/07/03 13:57:12;;;;;;;;;1.60;1.20;;;;;;;;5014526;28;8782;-76
2022/07/03 13:59:38;;;;;;;;;3.00;1.00;;;;;;;;5014566;28;8868;-75
2022/07/03 14:02:05;;;;;;;;;1.60;1.60;;;;;;;;5016364;28;8801;-76
2022/07/03 14:04:32;;;;;;;;;3.00;1.20;;;;;;;;5033145;28;8850;-76
2022/07/03 14:06:58;;;;;;;;;3.80;1.00;;;;;;;;5033948;28;8784;-76
2022/07/03 14:09:25;;;;;;;;;2.20;2.00;;;;;;;;5016512;28;9428;-76
2022/07/03 14:11:52;;;;;;;;;3.00;0.80;;;;;;;;5034336;28;8851;-80
2022/07/03 14:14:19;;;;;;;;;1.20;1.00;;;;;;;;5016714;28;8776;-76
2022/07/03 14:16:45;;;;;;;;;2.20;1.20;;;;;;;;5017201;28;8800;-76
2022/07/03 14:19:12;;;;;;;;;5.00;1.60;;;;;;;;5034913;28;8748;-76
2022/07/03 14:21:39;;;;;;;;;2.00;1.40;;;;;;;;5033876;28;8899;-76
2022/07/03 14:24:05;;;;;;;;;1.80;1.80;;;;;;;;5034353;28;8791;-80
2022/07/03 14:34:49;;;;;;;;;1.20;1.00;;;;;;;;5032957;28;8776;-76
2022/07/03 14:37:18;;;;;;;;;3.40;2.00;;;;;;;;5017182;28;8788;-76
2022/07/03 14:39:45;;;;;;;;;3.20;2.00;;;;;;;;5032819;28;8769;-76
2022/07/03 14:42:12;;;;;;;;;1.80;1.80;;;;;;;;5032917;28;9440;-76
2022/07/03 14:44:38;;;;;;;;;1.00;1.00;;;;;;;;5032747;28;8800;-76
2022/07/03 14:47:05;;;;;;;;;2.60;1.60;;;;;;;;5032793;28;8922;-75
2022/07/03 14:49:32;;;;;;;;;2.00;2.00;;;;;;;;5016310;28;8784;-76
2022/07/03 14:52:02;;;;;;;;;3.60;1.80;;;;;;;;5034574;28;8760;-76
2022/07/03 14:54:31;;;;;;;;;4.40;3.00;;;;;;;;5016099;28;8847;-83
2022/07/03 14:57:00;;;;;;;;;3.20;2.00;;;;;;;;5032748;28;8797;-76
2022/07/03 14:59:45;;;;;;;;;3.60;3.00;;;;;;;;5032674;28;9416;-76
2022/07/03 15:02:16;;;;;;;;;2.20;2.20;;;;;;;;5034648;28;8788;-76
2022/07/03 15:04:56;;;;;;;;;5.20;2.00;;;;;;;;5036406;28;8756;-76
2022/07/03 15:07:23;;;;;;;;;4.00;2.00;;;;;;;;5036750;28;8784;-76
2022/07/03 15:10:00;;;;;;;;;3.40;3.00;;;;;;;;5036763;28;8763;-76
2022/07/03 15:12:27;;;;;;;;;3.00;2.00;;;;;;;;5037020;28;8805;-76
2022/07/03 15:14:54;;;;;;;;;2.00;2.00;;;;;;;;5036279;28;8787;-76
2022/07/03 15:17:23;;;;;;;;;3.00;1.80;;;;;;;;5035769;28;8776;-76
2022/07/03 15:19:53;;;;;;;;;4.60;2.40;;;;;;;;5036145;28;8782;-76
2022/07/03 15:22:23;;;;;;;;;2.00;2.00;;;;;;;;5036412;28;8776;-76
2022/07/03 15:24:51;;;;;;;;;3.00;3.00;;;;;;;;5036532;28;8756;-76
2022/07/03 15:27:22;;;;;;;;;2.00;2.00;;;;;;;;5035701;28;8828;-76
2022/07/03 15:29:49;;;;;;;;;2.40;1.80;;;;;;;;5019544;28;8816;-75